Terminal Aerodrome Forecast
Issued by NWS Cleveland, OH

Home | Current Version | Previous Version | Text Only | Print | Product List | Glossary On
Versions: 1 2 3 4 5 6 7 8 9 10 11 12 13 14
655
FTUS41 KCLE 191132
TAFYNG
TAF
KYNG 191132Z 1912/2012 21009KT P6SM FEW250
     FM191500 21012G22KT P6SM FEW250=

USA.gov is the U.S. government's official web portal to all federal, state and local government web resources and services.